Time;durP1;ratioP1;P1;durP2;ratioP2;P2;SDS_P1;SDS_P2;PMS_P1;PMS_P2;Temp;Humidity;BMP_temperature;BMP_pressure;BME280_temperature;BME280_humidity;BME280_pressure;Samples;Min_cycle;Max_cycle;Signal;HPM_P1;HPM_P2
2021/10/23 00:00:57;;;;;;;0.00;0.00;;;7.20;99.90;;;;;;5063081;28;20031;-70
2021/10/23 00:03:23;;;;;;;0.00;0.00;;;7.20;99.90;;;;;;5062977;28;20025;-69
2021/10/23 00:05:48;;;;;;;0.22;0.22;;;7.10;99.90;;;;;;5065028;28;20043;-69
2021/10/23 00:08:14;;;;;;;0.00;0.00;;;7.20;99.90;;;;;;5078912;28;20529;-70
2021/10/23 00:10:39;;;;;;;0.10;0.10;;;7.10;99.90;;;;;;5063070;28;20063;-69
2021/10/23 00:13:05;;;;;;;0.00;0.00;;;7.20;99.90;;;;;;5062330;28;20037;-69
2021/10/23 00:15:31;;;;;;;4.55;0.90;;;7.20;99.90;;;;;;5058777;28;20032;-69
2021/10/23 00:17:56;;;;;;;0.00;0.00;;;7.20;99.90;;;;;;5067387;28;20388;-69
2021/10/23 00:20:22;;;;;;;0.00;0.00;;;7.20;99.90;;;;;;5069076;28;20025;-69
2021/10/23 00:22:48;;;;;;;0.00;0.00;;;7.10;99.90;;;;;;5055342;28;20025;-70
2021/10/23 00:25:13;;;;;;;1.67;1.35;;;7.10;99.90;;;;;;5064527;28;20418;-70
2021/10/23 00:27:39;;;;;;;0.00;0.00;;;7.10;99.90;;;;;;5074477;28;20031;-69
2021/10/23 00:30:05;;;;;;;0.00;0.00;;;7.10;99.90;;;;;;5064630;28;20078;-70
2021/10/23 00:32:30;;;;;;;0.08;0.08;;;7.10;99.90;;;;;;5066226;28;20387;-70
2021/10/23 00:34:56;;;;;;;0.20;0.20;;;7.10;99.90;;;;;;5052465;28;20229;-70
2021/10/23 00:37:21;;;;;;;0.80;0.80;;;7.10;99.90;;;;;;5058814;28;20024;-69
2021/10/23 00:39:47;;;;;;;24.10;1.70;;;7.10;99.90;;;;;;5062340;28;20048;-69
2021/10/23 00:42:13;;;;;;;0.57;0.57;;;7.10;99.90;;;;;;5054359;28;20036;-69
2021/10/23 00:44:41;;;;;;;0.00;0.00;;;7.10;99.90;;;;;;5058405;28;20063;-70
2021/10/23 00:47:09;;;;;;;0.30;0.30;;;7.00;99.90;;;;;;5064842;28;20028;-69
2021/10/23 00:49:36;;;;;;;0.00;0.00;;;7.10;99.90;;;;;;5053014;28;20025;-69
2021/10/23 00:52:03;;;;;;;0.00;0.00;;;7.00;99.90;;;;;;5064581;28;20024;-69
2021/10/23 00:54:30;;;;;;;0.52;0.38;;;7.00;99.90;;;;;;5058911;28;20819;-69
2021/10/23 00:56:57;;;;;;;0.20;0.20;;;7.00;99.90;;;;;;5057761;28;20368;-70
2021/10/23 00:59:22;;;;;;;1.13;0.70;;;7.00;99.90;;;;;;5055845;28;20032;-69
2021/10/23 01:01:49;;;;;;;0.05;0.05;;;7.00;99.90;;;;;;5060273;28;20033;-69
2021/10/23 01:04:15;;;;;;;0.00;0.00;;;7.00;99.90;;;;;;5058731;28;20468;-69
2021/10/23 01:06:40;;;;;;;0.10;0.10;;;7.00;99.90;;;;;;5053924;28;20154;-69
2021/10/23 01:09:06;;;;;;;3.92;1.38;;;7.00;99.90;;;;;;5061626;28;20028;-69
2021/10/23 01:11:32;;;;;;;12.25;0.40;;;7.00;99.90;;;;;;5059581;28;20028;-70
2021/10/23 01:13:58;;;;;;;1.35;0.98;;;7.00;99.90;;;;;;5058980;28;20021;-69
2021/10/23 01:16:23;;;;;;;0.98;0.75;;;6.90;99.90;;;;;;5063798;28;20025;-69
2021/10/23 01:18:50;;;;;;;0.00;0.00;;;6.90;99.90;;;;;;5059483;28;20387;-70
2021/10/23 01:21:20;;;;;;;4.57;2.05;;;6.90;99.90;;;;;;5058851;28;20040;-70
2021/10/23 01:23:45;;;;;;;0.00;0.00;;;6.90;99.90;;;;;;5062815;28;20120;-69
2021/10/23 01:26:11;;;;;;;0.10;0.10;;;6.90;99.90;;;;;;5056450;28;20431;-69
2021/10/23 01:28:37;;;;;;;0.15;0.15;;;6.90;99.90;;;;;;5059958;28;20034;-69
2021/10/23 01:31:02;;;;;;;0.00;0.00;;;6.90;99.90;;;;;;5053694;28;20029;-70
2021/10/23 01:33:28;;;;;;;0.00;0.00;;;6.90;99.90;;;;;;5061387;28;20032;-69
2021/10/23 01:36:05;;;;;;;0.20;0.20;;;6.90;99.90;;;;;;5054003;28;20025;-69
2021/10/23 01:38:31;;;;;;;0.10;0.10;;;6.90;99.90;;;;;;5057861;28;20052;-69
2021/10/23 01:40:56;;;;;;;0.00;0.00;;;6.90;99.90;;;;;;5051177;28;20495;-69
2021/10/23 01:43:22;;;;;;;0.00;0.00;;;6.90;99.90;;;;;;5060503;28;20078;-70
2021/10/23 01:45:47;;;;;;;0.45;0.45;;;6.90;99.90;;;;;;5060944;28;20419;-69
2021/10/23 01:48:13;;;;;;;0.10;0.10;;;6.90;99.90;;;;;;5067989;28;20028;-70
2021/10/23 01:50:38;;;;;;;0.10;0.10;;;6.90;99.90;;;;;;5056361;28;20028;-70
2021/10/23 01:53:04;;;;;;;0.00;0.00;;;6.90;99.90;;;;;;5059054;28;20025;-69
2021/10/23 01:55:29;;;;;;;0.85;0.32;;;6.90;99.90;;;;;;5058284;28;20036;-69
2021/10/23 01:57:57;;;;;;;0.00;0.00;;;6.90;99.90;;;;;;5062884;28;20029;-69
2021/10/23 02:00:22;;;;;;;0.08;0.08;;;7.00;99.90;;;;;;5061133;28;20021;-69
2021/10/23 02:02:48;;;;;;;0.00;0.00;;;6.90;99.90;;;;;;5065662;28;20104;-69
2021/10/23 02:05:13;;;;;;;0.13;0.13;;;6.90;99.90;;;;;;5057188;28;20017;-70
2021/10/23 02:07:39;;;;;;;0.00;0.00;;;7.00;99.90;;;;;;5068516;28;20139;-70
2021/10/23 02:10:06;;;;;;;0.00;0.00;;;6.90;99.90;;;;;;5054390;28;20021;-70
2021/10/23 02:12:32;;;;;;;0.00;0.00;;;7.00;99.90;;;;;;5058495;28;20039;-69
2021/10/23 02:14:57;;;;;;;0.00;0.00;;;7.00;99.90;;;;;;5067402;28;20040;-69
2021/10/23 02:17:23;;;;;;;0.30;0.30;;;6.90;99.90;;;;;;5052834;28;20465;-69
2021/10/23 02:19:48;;;;;;;0.10;0.10;;;7.00;99.90;;;;;;5059722;28;20032;-69
2021/10/23 02:22:14;;;;;;;0.00;0.00;;;6.90;99.90;;;;;;5058247;28;20021;-70
2021/10/23 02:24:39;;;;;;;0.90;0.85;;;6.90;99.90;;;;;;5064101;28;20059;-70
2021/10/23 02:27:05;;;;;;;0.10;0.10;;;6.90;99.90;;;;;;5058409;28;20074;-70
2021/10/23 02:29:30;;;;;;;0.10;0.10;;;7.00;99.90;;;;;;5049248;28;20509;-69
2021/10/23 02:31:56;;;;;;;0.30;0.30;;;6.90;99.90;;;;;;5058994;28;20509;-69
2021/10/23 02:34:21;;;;;;;0.05;0.05;;;6.90;99.90;;;;;;5061457;28;20028;-69
2021/10/23 02:36:47;;;;;;;0.35;0.35;;;6.90;99.90;;;;;;5054344;28;20130;-69
2021/10/23 02:39:12;;;;;;;0.03;0.03;;;6.90;99.90;;;;;;5059765;28;20566;-69
2021/10/23 02:41:38;;;;;;;0.10;0.10;;;7.00;99.90;;;;;;5061238;28;20040;-69
2021/10/23 02:44:03;;;;;;;0.00;0.00;;;6.90;99.90;;;;;;5049953;28;20148;-70
2021/10/23 02:46:29;;;;;;;0.00;0.00;;;6.90;99.90;;;;;;5062420;28;20028;-70
2021/10/23 02:48:54;;;;;;;0.10;0.10;;;7.00;99.90;;;;;;5053386;28;20028;-69
2021/10/23 02:51:20;;;;;;;0.25;0.25;;;7.00;99.90;;;;;;5055379;28;20082;-69
2021/10/23 02:53:45;;;;;;;0.10;0.10;;;7.00;99.90;;;;;;5056530;28;20040;-69
2021/10/23 02:56:11;;;;;;;0.10;0.10;;;7.00;99.90;;;;;;5059011;28;21590;-70
2021/10/23 02:58:36;;;;;;;0.15;0.15;;;7.00;99.90;;;;;;5059213;28;20021;-70
2021/10/23 03:01:03;;;;;;;0.10;0.10;;;7.00;99.90;;;;;;5060987;28;20021;-69
2021/10/23 03:03:29;;;;;;;2.70;1.58;;;7.00;99.90;;;;;;5053985;28;20059;-69
2021/10/23 03:05:54;;;;;;;0.50;0.50;;;7.00;99.90;;;;;;5062100;28;20444;-68
2021/10/23 03:08:20;;;;;;;0.00;0.00;;;7.00;99.90;;;;;;5057208;28;20037;-69
2021/10/23 03:10:45;;;;;;;0.55;0.50;;;7.00;99.90;;;;;;5050327;28;20020;-69
2021/10/23 03:13:11;;;;;;;0.00;0.00;;;7.00;99.90;;;;;;5049419;28;20045;-69
2021/10/23 03:15:37;;;;;;;0.03;0.03;;;7.00;99.90;;;;;;5051926;28;20036;-70
2021/10/23 03:18:02;;;;;;;0.20;0.20;;;7.00;99.90;;;;;;5049395;28;20098;-69
2021/10/23 03:20:28;;;;;;;0.10;0.10;;;7.00;99.90;;;;;;5059988;28;20020;-69
2021/10/23 03:22:53;;;;;;;0.30;0.30;;;7.00;99.90;;;;;;5065080;28;20028;-69
2021/10/23 03:25:19;;;;;;;0.00;0.00;;;7.00;99.90;;;;;;5057898;28;20045;-69
2021/10/23 03:27:44;;;;;;;0.00;0.00;;;7.00;99.90;;;;;;5059568;28;20094;-69
2021/10/23 03:30:10;;;;;;;0.73;0.73;;;7.00;99.90;;;;;;5056916;28;20025;-70
2021/10/23 03:32:36;;;;;;;0.00;0.00;;;7.00;99.90;;;;;;5055288;28;20017;-69
2021/10/23 03:35:06;;;;;;;0.00;0.00;;;6.90;99.90;;;;;;5061110;28;20044;-69
2021/10/23 03:37:34;;;;;;;7.38;2.53;;;6.90;99.90;;;;;;5063207;28;20033;-70
2021/10/23 03:40:00;;;;;;;0.10;0.10;;;6.90;99.90;;;;;;5060029;28;20111;-69
2021/10/23 03:42:26;;;;;;;0.38;0.28;;;6.90;99.90;;;;;;5055611;28;20476;-70
2021/10/23 03:44:52;;;;;;;1.70;1.05;;;6.90;99.90;;;;;;5056388;28;20055;-69
2021/10/23 03:47:18;;;;;;;0.25;0.25;;;6.90;99.90;;;;;;5053332;28;20021;-70
2021/10/23 03:49:45;;;;;;;2.67;1.67;;;6.90;99.90;;;;;;5058415;28;20062;-70
2021/10/23 03:52:11;;;;;;;0.00;0.00;;;6.90;99.90;;;;;;5052916;28;20039;-70
2021/10/23 03:54:37;;;;;;;0.13;0.13;;;7.00;99.90;;;;;;5059542;28;20395;-69
2021/10/23 03:57:04;;;;;;;0.00;0.00;;;7.00;99.90;;;;;;5055799;28;20131;-69
2021/10/23 03:59:30;;;;;;;0.47;0.47;;;7.00;99.90;;;;;;5052927;28;20028;-70
2021/10/23 04:01:56;;;;;;;0.32;0.30;;;7.00;99.90;;;;;;5055770;28;20066;-70
2021/10/23 04:04:22;;;;;;;1.02;1.02;;;7.10;99.90;;;;;;5051532;28;20028;-70
2021/10/23 04:06:48;;;;;;;1.45;1.23;;;7.10;99.90;;;;;;5062671;28;20021;-70
2021/10/23 04:09:13;;;;;;;0.00;0.00;;;7.10;99.90;;;;;;5054780;28;20400;-70
2021/10/23 04:11:39;;;;;;;0.00;0.00;;;7.10;99.90;;;;;;5053577;28;20025;-70
2021/10/23 04:14:04;;;;;;;0.00;0.00;;;7.10;99.90;;;;;;5053388;28;20033;-70
2021/10/23 04:16:30;;;;;;;0.00;0.00;;;7.10;99.90;;;;;;5057478;28;20037;-69
2021/10/23 04:18:55;;;;;;;0.10;0.10;;;7.10;99.90;;;;;;5049275;28;20024;-70
2021/10/23 04:21:21;;;;;;;0.25;0.22;;;7.10;99.90;;;;;;5065143;28;20498;-70
2021/10/23 04:23:46;;;;;;;1.13;1.02;;;7.20;99.90;;;;;;5058766;28;20040;-71
2021/10/23 04:26:12;;;;;;;0.00;0.00;;;7.10;99.90;;;;;;5055773;28;20046;-70
2021/10/23 04:28:38;;;;;;;0.70;0.70;;;7.10;99.90;;;;;;5058795;28;20266;-70
2021/10/23 04:31:03;;;;;;;0.00;0.00;;;7.10;99.90;;;;;;5054983;28;20040;-70
2021/10/23 04:33:29;;;;;;;0.10;0.10;;;7.10;99.90;;;;;;5056210;28;20033;-69
2021/10/23 04:35:55;;;;;;;0.00;0.00;;;7.10;99.90;;;;;;5050009;28;20064;-70
2021/10/23 04:38:21;;;;;;;0.32;0.32;;;7.00;99.90;;;;;;5053944;28;20025;-71
2021/10/23 04:40:46;;;;;;;0.00;0.00;;;7.10;99.90;;;;;;5048513;28;20112;-70
2021/10/23 04:43:12;;;;;;;0.10;0.10;;;7.10;99.90;;;;;;5048009;28;20025;-69
2021/10/23 04:45:39;;;;;;;0.00;0.00;;;7.00;99.90;;;;;;5049626;28;20029;-70
2021/10/23 04:48:06;;;;;;;0.10;0.10;;;7.00;99.90;;;;;;5059226;28;20039;-70
2021/10/23 04:50:31;;;;;;;4.80;0.70;;;7.00;99.90;;;;;;5062757;28;20093;-71
2021/10/23 04:52:56;;;;;;;0.08;0.08;;;7.00;99.90;;;;;;5061550;28;20028;-70
2021/10/23 04:55:22;;;;;;;0.00;0.00;;;7.00;99.90;;;;;;5056933;28;20032;-70
2021/10/23 04:57:47;;;;;;;1.33;0.93;;;7.00;99.90;;;;;;5057153;28;20060;-70
2021/10/23 05:00:13;;;;;;;10.05;2.20;;;6.90;99.90;;;;;;5066504;28;20028;-70
2021/10/23 05:02:38;;;;;;;0.20;0.20;;;6.90;99.90;;;;;;5058138;28;20031;-70
2021/10/23 05:05:04;;;;;;;0.85;0.82;;;7.00;99.90;;;;;;5054282;28;20021;-70
2021/10/23 05:07:30;;;;;;;0.63;0.52;;;6.90;99.90;;;;;;5057111;28;20112;-69
2021/10/23 05:09:55;;;;;;;0.20;0.20;;;6.90;99.90;;;;;;5060414;28;20049;-69
2021/10/23 05:12:21;;;;;;;0.10;0.10;;;6.90;99.90;;;;;;5061003;28;20078;-70
2021/10/23 05:14:46;;;;;;;0.10;0.10;;;6.90;99.90;;;;;;5057014;28;20044;-70
2021/10/23 05:17:12;;;;;;;0.32;0.32;;;6.90;99.90;;;;;;5063015;28;20033;-70
2021/10/23 05:19:37;;;;;;;3.97;1.00;;;6.90;99.90;;;;;;5057912;28;20024;-70
2021/10/23 05:22:03;;;;;;;0.10;0.10;;;6.90;99.90;;;;;;5066327;28;20032;-70
2021/10/23 05:24:28;;;;;;;0.00;0.00;;;6.90;99.90;;;;;;5064377;28;20083;-69
2021/10/23 05:26:54;;;;;;;0.03;0.03;;;6.90;99.90;;;;;;5061399;28;20016;-69
2021/10/23 05:29:19;;;;;;;3.50;2.08;;;6.80;99.90;;;;;;5057595;28;20020;-69
2021/10/23 05:31:46;;;;;;;0.13;0.13;;;6.80;99.90;;;;;;5060672;28;20032;-70
2021/10/23 05:34:11;;;;;;;0.10;0.10;;;6.80;99.90;;;;;;5060427;28;20079;-69
2021/10/23 05:36:37;;;;;;;2.63;0.80;;;6.70;99.90;;;;;;5058794;28;20032;-68
2021/10/23 05:39:03;;;;;;;0.00;0.00;;;6.80;99.90;;;;;;5057968;28;20518;-70
2021/10/23 05:41:28;;;;;;;0.20;0.20;;;6.70;99.90;;;;;;5068133;28;20582;-69
2021/10/23 05:43:54;;;;;;;0.85;0.85;;;6.70;99.90;;;;;;5052480;28;20407;-69
2021/10/23 05:46:19;;;;;;;0.00;0.00;;;6.70;99.90;;;;;;5062143;28;20372;-70
2021/10/23 05:48:45;;;;;;;1.05;1.05;;;6.70;99.90;;;;;;5054135;28;20039;-69
2021/10/23 05:51:10;;;;;;;0.13;0.13;;;6.70;99.90;;;;;;5058388;28;20099;-69
2021/10/23 05:53:35;;;;;;;0.40;0.40;;;6.70;99.90;;;;;;5056610;28;20100;-68
2021/10/23 05:56:01;;;;;;;0.00;0.00;;;6.80;99.90;;;;;;5057821;28;20028;-68
2021/10/23 05:58:29;;;;;;;0.00;0.00;;;6.70;99.90;;;;;;5058745;28;20024;-68
2021/10/23 06:00:59;;;;;;;0.10;0.10;;;6.80;99.90;;;;;;5061942;28;20115;-68
2021/10/23 06:03:26;;;;;;;3.50;2.13;;;6.70;99.90;;;;;;5064399;28;20222;-70
2021/10/23 06:05:52;;;;;;;0.70;0.47;;;6.80;99.90;;;;;;5064368;28;20051;-69
2021/10/23 06:08:17;;;;;;;2.38;0.85;;;6.80;99.90;;;;;;5066188;28;20020;-69
2021/10/23 06:10:43;;;;;;;0.00;0.00;;;6.80;99.90;;;;;;5063571;28;20039;-69
2021/10/23 06:13:21;;;;;;;29.92;0.73;;;6.70;99.90;;;;;;5064135;28;20506;-69
2021/10/23 06:15:50;;;;;;;0.05;0.05;;;6.80;99.90;;;;;;5064330;28;20040;-69
2021/10/23 06:18:16;;;;;;;0.00;0.00;;;6.70;99.90;;;;;;5066366;28;20032;-68
2021/10/23 06:20:43;;;;;;;0.00;0.00;;;6.70;99.90;;;;;;5063547;28;20018;-69
2021/10/23 06:23:08;;;;;;;0.43;0.43;;;6.70;99.90;;;;;;5066774;28;20036;-68
2021/10/23 06:25:34;;;;;;;0.10;0.10;;;6.70;99.90;;;;;;5064281;28;20364;-69
2021/10/23 06:27:59;;;;;;;2.90;0.65;;;6.70;99.90;;;;;;5062622;28;20048;-68
2021/10/23 06:30:25;;;;;;;0.00;0.00;;;6.70;99.90;;;;;;5067475;28;20611;-68
2021/10/23 06:32:53;;;;;;;0.10;0.10;;;6.70;99.90;;;;;;5064002;28;20074;-68
2021/10/23 06:35:20;;;;;;;0.05;0.05;;;6.80;99.90;;;;;;5065335;28;20073;-68
2021/10/23 06:37:46;;;;;;;0.00;0.00;;;6.80;99.90;;;;;;5066686;28;20526;-69
2021/10/23 06:40:13;;;;;;;0.75;0.25;;;6.80;99.90;;;;;;5066378;28;20044;-68
2021/10/23 06:42:39;;;;;;;5.82;1.50;;;6.80;99.90;;;;;;5065503;28;20368;-68
2021/10/23 06:45:07;;;;;;;1.38;0.77;;;6.80;99.90;;;;;;5062169;28;20434;-69
2021/10/23 06:47:33;;;;;;;0.03;0.03;;;6.90;99.90;;;;;;5064225;28;20032;-67
2021/10/23 06:49:58;;;;;;;1.27;1.17;;;6.90;99.90;;;;;;5066117;28;20031;-68
2021/10/23 06:52:25;;;;;;;0.88;0.88;;;6.90;99.90;;;;;;5066590;28;20108;-69
2021/10/23 06:54:51;;;;;;;0.20;0.20;;;6.90;99.90;;;;;;5064953;28;20158;-68
2021/10/23 06:57:16;;;;;;;0.20;0.20;;;7.00;99.90;;;;;;5062021;28;20064;-74
2021/10/23 06:59:42;;;;;;;0.03;0.03;;;7.00;99.90;;;;;;5063479;28;20024;-69
2021/10/23 07:02:10;;;;;;;0.10;0.10;;;7.10;99.90;;;;;;5063897;28;20013;-69
2021/10/23 07:04:39;;;;;;;0.75;0.47;;;7.10;99.90;;;;;;5060906;28;20024;-68
2021/10/23 07:07:04;;;;;;;0.00;0.00;;;7.10;99.90;;;;;;5052970;28;20024;-71
2021/10/23 07:09:30;;;;;;;0.30;0.30;;;7.20;99.90;;;;;;5053041;28;20090;-69
2021/10/23 07:11:55;;;;;;;0.52;0.43;;;7.20;99.90;;;;;;5059672;28;20028;-69
2021/10/23 07:14:21;;;;;;;0.03;0.03;;;7.30;99.90;;;;;;5057132;28;20024;-71
2021/10/23 07:16:47;;;;;;;0.00;0.00;;;7.30;99.90;;;;;;5063795;28;20028;-69
2021/10/23 07:19:12;;;;;;;0.17;0.17;;;7.30;99.90;;;;;;5056842;28;20029;-69
2021/10/23 07:21:38;;;;;;;0.10;0.10;;;7.30;99.90;;;;;;5063043;28;20028;-69
2021/10/23 07:24:04;;;;;;;0.00;0.00;;;7.40;99.90;;;;;;5053286;28;20037;-71
2021/10/23 07:26:29;;;;;;;0.00;0.00;;;7.40;99.90;;;;;;5056595;28;20467;-69
2021/10/23 07:28:54;;;;;;;0.32;0.05;;;7.50;99.90;;;;;;5060474;28;20024;-68
2021/10/23 07:31:20;;;;;;;0.60;0.60;;;7.60;99.90;;;;;;5059737;28;20184;-69
2021/10/23 07:33:47;;;;;;;0.40;0.40;;;7.60;99.90;;;;;;5059199;28;20119;-68
2021/10/23 07:36:17;;;;;;;0.10;0.10;;;7.70;99.90;;;;;;5064279;28;20024;-70
2021/10/23 07:38:43;;;;;;;15.02;1.65;;;7.80;99.90;;;;;;5060888;28;20086;-72
2021/10/23 07:41:09;;;;;;;0.35;0.35;;;7.90;99.90;;;;;;5053261;28;20037;-71
2021/10/23 07:43:34;;;;;;;4.28;0.95;;;8.00;99.90;;;;;;5065287;28;20479;-70
2021/10/23 07:46:00;;;;;;;1.00;0.22;;;8.20;99.90;;;;;;5066766;28;20040;-68
2021/10/23 07:48:29;;;;;;;0.00;0.00;;;8.20;99.90;;;;;;5059896;28;20397;-68
2021/10/23 07:50:54;;;;;;;24.02;0.70;;;8.30;99.90;;;;;;5052432;28;20043;-68
2021/10/23 07:53:20;;;;;;;0.10;0.10;;;8.30;99.90;;;;;;5060293;28;20025;-68
2021/10/23 07:55:47;;;;;;;0.40;0.40;;;8.30;99.90;;;;;;5067730;28;20078;-68
2021/10/23 07:58:13;;;;;;;0.00;0.00;;;8.40;99.90;;;;;;5064970;28;20040;-68
2021/10/23 08:00:38;;;;;;;0.40;0.28;;;8.40;99.90;;;;;;5064093;28;20021;-67
2021/10/23 08:03:04;;;;;;;0.00;0.00;;;8.40;99.90;;;;;;5057979;28;20379;-68
2021/10/23 08:05:35;;;;;;;0.55;0.55;;;8.50;99.90;;;;;;5062377;28;20117;-68
2021/10/23 08:08:02;;;;;;;0.90;0.75;;;8.50;99.90;;;;;;5038627;28;20044;-68
2021/10/23 08:10:29;;;;;;;0.00;0.00;;;8.60;99.90;;;;;;5053106;28;20033;-69
2021/10/23 08:12:56;;;;;;;0.10;0.10;;;8.60;99.90;;;;;;5061696;28;20024;-68
2021/10/23 08:15:22;;;;;;;7.78;1.85;;;8.70;99.90;;;;;;5065200;28;20119;-69
2021/10/23 08:17:48;;;;;;;0.00;0.00;;;8.70;99.90;;;;;;5066260;28;20395;-71
2021/10/23 08:20:14;;;;;;;0.20;0.20;;;8.70;99.90;;;;;;5061867;28;20027;-72
2021/10/23 08:22:40;;;;;;;0.30;0.30;;;8.70;99.90;;;;;;5060331;28;20386;-71
2021/10/23 08:25:09;;;;;;;0.00;0.00;;;8.70;99.90;;;;;;5068265;28;20692;-73
2021/10/23 08:27:36;;;;;;;0.35;0.35;;;8.70;99.90;;;;;;5067953;28;20032;-72
2021/10/23 08:30:04;;;;;;;0.00;0.00;;;8.90;99.90;;;;;;5067414;28;20036;-72
2021/10/23 08:32:29;;;;;;;0.55;0.25;;;9.10;99.90;;;;;;5064910;28;20033;-71
2021/10/23 08:34:55;;;;;;;1.00;0.40;;;9.20;99.90;;;;;;5070376;28;20020;-71
2021/10/23 08:37:22;;;;;;;0.00;0.00;;;9.20;99.90;;;;;;5065514;28;20035;-72
2021/10/23 08:39:48;;;;;;;0.00;0.00;;;9.20;99.90;;;;;;5064607;28;20032;-71
2021/10/23 08:42:14;;;;;;;0.10;0.10;;;9.20;99.90;;;;;;5070033;28;20059;-72
2021/10/23 08:44:42;;;;;;;0.20;0.20;;;9.20;99.90;;;;;;5069134;28;20029;-71
2021/10/23 08:47:07;;;;;;;0.00;0.00;;;9.30;99.90;;;;;;5071073;28;20375;-71
2021/10/23 08:49:35;;;;;;;0.10;0.10;;;9.40;99.90;;;;;;5071251;28;20039;-71
2021/10/23 08:52:02;;;;;;;0.10;0.10;;;9.40;99.90;;;;;;5069222;28;20094;-72
2021/10/23 08:54:29;;;;;;;0.00;0.00;;;9.40;99.90;;;;;;5056122;28;20035;-71
2021/10/23 08:56:55;;;;;;;0.00;0.00;;;9.50;99.90;;;;;;5070814;28;20119;-71
2021/10/23 08:59:20;;;;;;;0.47;0.45;;;9.60;99.90;;;;;;5068173;28;20105;-71
2021/10/23 09:01:47;;;;;;;0.25;0.25;;;9.70;99.90;;;;;;5059894;28;20024;-71
2021/10/23 09:04:13;;;;;;;0.00;0.00;;;9.70;99.90;;;;;;5057138;28;20032;-71
2021/10/23 09:06:40;;;;;;;0.05;0.05;;;9.80;99.90;;;;;;5066206;28;20017;-71
2021/10/23 09:09:11;;;;;;;0.47;0.28;;;9.80;99.90;;;;;;5064682;28;20056;-71
2021/10/23 09:11:39;;;;;;;0.10;0.10;;;9.70;99.90;;;;;;5061521;28;20036;-71
2021/10/23 09:14:31;;;;;;;0.00;0.00;;;9.70;99.90;;;;;;5067985;28;20040;-72
2021/10/23 09:16:59;;;;;;;;;;;9.60;99.90;;;;;;5071121;28;20070;-71
2021/10/23 09:19:44;;;;;;;0.10;0.10;;;9.70;99.90;;;;;;5070600;28;19908;-72
2021/10/23 09:22:24;;;;;;;1.60;1.50;;;9.80;99.90;;;;;;5068377;28;20522;-71
2021/10/23 09:24:51;;;;;;;0.17;0.17;;;9.80;99.90;;;;;;5062957;28;20045;-71
2021/10/23 09:27:20;;;;;;;0.20;0.20;;;9.80;99.90;;;;;;5068068;28;20028;-71
2021/10/23 09:29:54;;;;;;;0.10;0.10;;;9.70;99.90;;;;;;5070291;28;20036;-70
2021/10/23 09:32:20;;;;;;;4.78;1.45;;;9.80;99.90;;;;;;5063550;28;20471;-70
2021/10/23 09:34:45;;;;;;;1.65;1.10;;;9.90;99.90;;;;;;5069348;28;20220;-71
2021/10/23 09:37:12;;;;;;;0.17;0.17;;;9.90;99.90;;;;;;5070218;28;20031;-71
2021/10/23 09:39:38;;;;;;;0.93;0.68;;;10.00;99.90;;;;;;5063039;28;20041;-70
2021/10/23 09:42:10;;;;;;;0.10;0.10;;;10.10;99.90;;;;;;5075555;28;20077;-70
2021/10/23 09:45:03;;;;;;;0.20;0.20;;;10.10;99.90;;;;;;5067271;28;20032;-71
2021/10/23 09:47:37;;;;;;;0.75;0.30;;;10.20;99.90;;;;;;5057922;28;20293;-71
2021/10/23 09:50:19;;;;;;;0.20;0.20;;;10.30;99.90;;;;;;5069652;28;20029;-72
2021/10/23 09:53:02;;;;;;;0.00;0.00;;;10.40;99.90;;;;;;5060484;28;20047;-74
2021/10/23 09:55:54;;;;;;;0.08;0.08;;;10.60;99.90;;;;;;5057669;28;20032;-75
2021/10/23 09:58:21;;;;;;;0.00;0.00;;;10.70;99.90;;;;;;5056637;28;20033;-73
2021/10/23 10:00:48;;;;;;;0.20;0.20;;;10.80;99.80;;;;;;5068734;28;20032;-73
2021/10/23 10:03:14;;;;;;;0.22;0.22;;;10.80;99.70;;;;;;5067867;28;20032;-73
2021/10/23 10:05:41;;;;;;;0.15;0.15;;;10.90;99.00;;;;;;5056870;28;20718;-72
2021/10/23 10:08:09;;;;;;;0.10;0.10;;;11.00;98.70;;;;;;5062009;28;20029;-73
2021/10/23 10:10:39;;;;;;;0.10;0.10;;;11.10;97.60;;;;;;5056010;28;20025;-73
2021/10/23 10:13:06;;;;;;;0.08;0.08;;;11.10;96.90;;;;;;5069546;28;20025;-74
2021/10/23 10:15:33;;;;;;;0.10;0.10;;;11.30;97.20;;;;;;5038689;28;20047;-73
2021/10/23 10:18:04;;;;;;;0.03;0.03;;;11.40;96.50;;;;;;5062060;28;20024;-73
2021/10/23 10:20:46;;;;;;;0.60;0.60;;;11.40;96.00;;;;;;5062783;28;20071;-73
2021/10/23 10:23:20;;;;;;;22.58;0.63;;;11.40;95.40;;;;;;5067616;28;20027;-73
2021/10/23 10:26:21;;;;;;;0.00;0.00;;;11.40;95.20;;;;;;5066219;28;20024;-73
2021/10/23 10:29:06;;;;;;;0.55;0.55;;;11.40;95.60;;;;;;5061305;28;20509;-73
2021/10/23 10:31:56;;;;;;;0.10;0.10;;;11.60;94.60;;;;;;5062755;28;20060;-73
2021/10/23 10:34:38;;;;;;;1.65;0.95;;;11.70;94.60;;;;;;5062111;28;20028;-74
2021/10/23 10:42:59;;;;;;;0.38;0.35;;;12.20;93.30;;;;;;5011618;28;20108;-73
2021/10/23 10:45:47;;;;;;;12.43;1.20;;;12.30;92.90;;;;;;5061265;28;20441;-73
2021/10/23 10:48:21;;;;;;;0.00;0.00;;;12.40;92.40;;;;;;5064035;28;20048;-74
2021/10/23 10:50:51;;;;;;;0.00;0.00;;;12.60;91.30;;;;;;5063949;28;20737;-72
2021/10/23 10:53:18;;;;;;;0.00;0.00;;;12.90;91.20;;;;;;5068480;28;20028;-72
2021/10/23 10:55:55;;;;;;;0.13;0.13;;;13.00;91.00;;;;;;5068034;28;20285;-72
2021/10/23 10:58:49;;;;;;;0.08;0.08;;;12.80;90.80;;;;;;5065207;28;20036;-74
2021/10/23 11:01:21;;;;;;;1.05;0.63;;;12.50;90.20;;;;;;5065632;28;20031;-68
2021/10/23 11:04:10;;;;;;;0.28;0.28;;;12.40;91.60;;;;;;5054578;28;20522;-72
2021/10/23 11:06:35;;;;;;;2.50;1.42;;;12.80;91.40;;;;;;5063624;28;20036;-69
2021/10/23 11:09:14;;;;;;;0.17;0.17;;;13.00;90.80;;;;;;5063070;28;20017;-68
2021/10/23 11:11:47;;;;;;;1.55;0.73;;;13.40;89.80;;;;;;5066633;28;20029;-68
2021/10/23 11:14:21;;;;;;;1.80;1.52;;;13.70;88.30;;;;;;5058149;28;20578;-68
2021/10/23 11:16:56;;;;;;;0.10;0.10;;;13.80;87.90;;;;;;5056713;28;20029;-68
2021/10/23 11:19:30;;;;;;;1.40;0.95;;;13.80;86.40;;;;;;5053175;28;20037;-67
2021/10/23 11:22:18;;;;;;;1.10;0.85;;;14.10;86.20;;;;;;5062499;28;20036;-67
2021/10/23 11:24:50;;;;;;;0.10;0.10;;;14.30;86.00;;;;;;5056964;28;20051;-68
2021/10/23 11:27:35;;;;;;;1.00;0.57;;;14.60;83.80;;;;;;5065939;28;20376;-67
2021/10/23 11:30:26;;;;;;;3.00;1.38;;;14.50;82.20;;;;;;5067791;28;20021;-68
2021/10/23 11:32:56;;;;;;;8.07;0.70;;;13.90;82.00;;;;;;5058800;28;20494;-68
2021/10/23 11:35:39;;;;;;;0.20;0.20;;;13.40;82.90;;;;;;5064376;28;20025;-69
2021/10/23 11:38:20;;;;;;;0.00;0.00;;;13.00;83.40;;;;;;5062588;28;20043;-69
2021/10/23 11:40:51;;;;;;;5.93;1.17;;;13.00;83.60;;;;;;5066670;28;20025;-68
2021/10/23 11:43:17;;;;;;;0.20;0.20;;;13.30;84.20;;;;;;5064451;28;20047;-68
2021/10/23 11:45:44;;;;;;;0.10;0.10;;;13.70;82.70;;;;;;5067816;28;20061;-68
2021/10/23 11:48:11;;;;;;;0.30;0.30;;;13.70;81.00;;;;;;5067218;28;20028;-68
2021/10/23 11:50:53;;;;;;;0.10;0.10;;;13.60;82.50;;;;;;5067793;28;20682;-68
2021/10/23 11:53:29;;;;;;;0.10;0.10;;;13.40;82.00;;;;;;5067464;28;20113;-68
2021/10/23 11:56:03;;;;;;;0.00;0.00;;;13.20;83.90;;;;;;5076441;28;20024;-69
2021/10/23 11:58:34;;;;;;;2.38;1.27;;;13.10;84.50;;;;;;5067763;28;20036;-68
2021/10/23 12:01:08;;;;;;;0.32;0.25;;;13.00;85.30;;;;;;5063963;28;20032;-68
2021/10/23 12:03:38;;;;;;;4.03;1.75;;;13.20;82.70;;;;;;5068068;28;20096;-68
2021/10/23 12:06:19;;;;;;;0.00;0.00;;;13.30;82.30;;;;;;5065795;28;20032;-69
2021/10/23 12:08:45;;;;;;;0.52;0.22;;;13.50;80.70;;;;;;5056329;28;20025;-69
2021/10/23 12:11:29;;;;;;;1.42;1.27;;;13.50;80.00;;;;;;5063769;28;20036;-69
2021/10/23 12:14:00;;;;;;;0.00;0.00;;;13.70;81.40;;;;;;5053639;28;20495;-75
2021/10/23 12:16:34;;;;;;;0.00;0.00;;;13.80;82.00;;;;;;5062595;28;20033;-73
2021/10/23 12:19:31;;;;;;;0.20;0.20;;;14.10;82.30;;;;;;5062800;28;20037;-72
2021/10/23 12:22:13;;;;;;;0.20;0.20;;;14.30;77.80;;;;;;5059825;28;20734;-71
2021/10/23 12:24:52;;;;;;;2.13;0.65;;;14.40;76.40;;;;;;5058042;28;20507;-72
2021/10/23 12:27:27;;;;;;;0.00;0.00;;;14.20;76.00;;;;;;5063706;28;20031;-72
2021/10/23 12:30:11;;;;;;;0.65;0.65;;;14.00;75.00;;;;;;5064442;28;20085;-72
2021/10/23 12:32:41;;;;;;;1.75;1.10;;;14.00;77.10;;;;;;5064989;28;20033;-71
2021/10/23 12:35:08;;;;;;;0.20;0.20;;;14.20;76.00;;;;;;5066073;28;20020;-72
2021/10/23 12:37:42;;;;;;;2.53;0.70;;;14.30;76.50;;;;;;5063610;28;20029;-71
2021/10/23 12:40:13;;;;;;;1.27;0.68;;;14.10;75.90;;;;;;5063117;28;20036;-72
2021/10/23 12:42:44;;;;;;;0.08;0.08;;;14.00;78.80;;;;;;5064706;28;20380;-72
2021/10/23 12:45:15;;;;;;;1.35;0.20;;;14.20;78.40;;;;;;5058467;28;20386;-68
2021/10/23 12:47:41;;;;;;;0.77;0.50;;;14.40;77.70;;;;;;5059810;28;20074;-72
2021/10/23 12:50:08;;;;;;;0.00;0.00;;;14.90;75.20;;;;;;5064773;28;20562;-68
2021/10/23 12:52:35;;;;;;;0.65;0.65;;;15.00;73.90;;;;;;5063235;28;20077;-69
2021/10/23 12:55:01;;;;;;;0.10;0.10;;;15.10;71.40;;;;;;5064079;28;20028;-69
2021/10/23 12:57:29;;;;;;;0.10;0.10;;;15.30;72.20;;;;;;5058451;28;20112;-67
2021/10/23 12:59:54;;;;;;;0.35;0.35;;;15.70;70.20;;;;;;5065270;28;20037;-69
2021/10/23 13:02:20;;;;;;;0.10;0.10;;;15.80;70.50;;;;;;5066507;28;20039;-73
2021/10/23 13:04:45;;;;;;;0.10;0.10;;;16.30;68.20;;;;;;5065659;28;20051;-71
2021/10/23 13:07:14;;;;;;;1.02;0.75;;;16.80;65.80;;;;;;5065367;28;20025;-71